sensor_id;sensor_type;location;lat;lon;timestamp;P1;durP1;ratioP1;P2;durP2;ratioP2
59273;SDS011;45044;41.572;24.730;2023-06-22T00:00:11;12.82;;;8.77;;
59273;SDS011;45044;41.572;24.730;2023-06-22T00:02:38;11.13;;;7.63;;
59273;SDS011;45044;41.572;24.730;2023-06-22T00:05:05;12.40;;;8.55;;
59273;SDS011;45044;41.572;24.730;2023-06-22T00:07:32;11.50;;;8.23;;
59273;SDS011;45044;41.572;24.730;2023-06-22T00:09:59;10.98;;;7.82;;
59273;SDS011;45044;41.572;24.730;2023-06-22T00:12:26;11.40;;;8.00;;
59273;SDS011;45044;41.572;24.730;2023-06-22T00:14:52;11.00;;;7.80;;
59273;SDS011;45044;41.572;24.730;2023-06-22T00:17:19;11.00;;;8.20;;
59273;SDS011;45044;41.572;24.730;2023-06-22T00:19:46;10.55;;;8.10;;
59273;SDS011;45044;41.572;24.730;2023-06-22T00:22:13;12.10;;;7.60;;
59273;SDS011;45044;41.572;24.730;2023-06-22T00:24:40;10.95;;;8.32;;
59273;SDS011;45044;41.572;24.730;2023-06-22T00:27:08;11.20;;;8.23;;
59273;SDS011;45044;41.572;24.730;2023-06-22T00:29:34;12.80;;;8.63;;
59273;SDS011;45044;41.572;24.730;2023-06-22T00:32:01;12.05;;;8.23;;
59273;SDS011;45044;41.572;24.730;2023-06-22T00:34:28;11.27;;;7.93;;
59273;SDS011;45044;41.572;24.730;2023-06-22T00:36:55;13.20;;;9.10;;
59273;SDS011;45044;41.572;24.730;2023-06-22T00:39:21;12.57;;;7.82;;
59273;SDS011;45044;41.572;24.730;2023-06-22T00:41:48;10.60;;;7.68;;
59273;SDS011;45044;41.572;24.730;2023-06-22T00:44:15;12.25;;;8.00;;
59273;SDS011;45044;41.572;24.730;2023-06-22T00:46:42;11.88;;;8.30;;
59273;SDS011;45044;41.572;24.730;2023-06-22T00:49:09;12.80;;;8.40;;
59273;SDS011;45044;41.572;24.730;2023-06-22T00:51:37;11.63;;;8.60;;
59273;SDS011;45044;41.572;24.730;2023-06-22T00:54:04;11.18;;;7.97;;
59273;SDS011;45044;41.572;24.730;2023-06-22T00:56:31;13.00;;;8.20;;
59273;SDS011;45044;41.572;24.730;2023-06-22T00:58:58;11.25;;;7.50;;
59273;SDS011;45044;41.572;24.730;2023-06-22T01:01:29;11.35;;;7.88;;
59273;SDS011;45044;41.572;24.730;2023-06-22T01:03:56;12.50;;;8.75;;
59273;SDS011;45044;41.572;24.730;2023-06-22T01:06:26;11.60;;;8.50;;
59273;SDS011;45044;41.572;24.730;2023-06-22T01:09:22;10.85;;;8.35;;
59273;SDS011;45044;41.572;24.730;2023-06-22T01:11:56;13.50;;;9.05;;
59273;SDS011;45044;41.572;24.730;2023-06-22T01:17:04;13.93;;;9.38;;
59273;SDS011;45044;41.572;24.730;2023-06-22T01:19:35;11.93;;;8.75;;
59273;SDS011;45044;41.572;24.730;2023-06-22T01:24:55;11.10;;;7.55;;
59273;SDS011;45044;41.572;24.730;2023-06-22T01:27:40;11.55;;;7.85;;
59273;SDS011;45044;41.572;24.730;2023-06-22T01:30:31;11.93;;;7.97;;
59273;SDS011;45044;41.572;24.730;2023-06-22T01:33:00;11.55;;;8.00;;
59273;SDS011;45044;41.572;24.730;2023-06-22T01:35:29;11.90;;;7.88;;
59273;SDS011;45044;41.572;24.730;2023-06-22T01:37:56;10.82;;;7.60;;
59273;SDS011;45044;41.572;24.730;2023-06-22T01:40:23;10.63;;;7.82;;
59273;SDS011;45044;41.572;24.730;2023-06-22T01:42:52;11.77;;;7.53;;
59273;SDS011;45044;41.572;24.730;2023-06-22T01:45:22;11.73;;;7.80;;
59273;SDS011;45044;41.572;24.730;2023-06-22T01:47:49;11.60;;;8.02;;
59273;SDS011;45044;41.572;24.730;2023-06-22T01:50:16;10.77;;;7.45;;
59273;SDS011;45044;41.572;24.730;2023-06-22T01:52:44;10.75;;;7.28;;
59273;SDS011;45044;41.572;24.730;2023-06-22T01:55:11;13.25;;;7.82;;
59273;SDS011;45044;41.572;24.730;2023-06-22T01:57:38;11.55;;;8.23;;
59273;SDS011;45044;41.572;24.730;2023-06-22T02:00:12;12.93;;;8.70;;
59273;SDS011;45044;41.572;24.730;2023-06-22T02:02:57;11.50;;;7.72;;
59273;SDS011;45044;41.572;24.730;2023-06-22T02:05:43;14.43;;;8.07;;
59273;SDS011;45044;41.572;24.730;2023-06-22T02:08:25;10.98;;;7.88;;
59273;SDS011;45044;41.572;24.730;2023-06-22T02:10:56;10.50;;;7.65;;
59273;SDS011;45044;41.572;24.730;2023-06-22T02:13:26;10.98;;;7.38;;
59273;SDS011;45044;41.572;24.730;2023-06-22T02:15:53;12.07;;;8.60;;
59273;SDS011;45044;41.572;24.730;2023-06-22T02:18:21;11.60;;;8.45;;
59273;SDS011;45044;41.572;24.730;2023-06-22T02:20:47;10.95;;;8.50;;
59273;SDS011;45044;41.572;24.730;2023-06-22T02:23:14;10.73;;;8.27;;
59273;SDS011;45044;41.572;24.730;2023-06-22T02:25:41;11.05;;;8.35;;
59273;SDS011;45044;41.572;24.730;2023-06-22T02:28:10;12.02;;;8.23;;
59273;SDS011;45044;41.572;24.730;2023-06-22T02:30:37;11.52;;;8.90;;
59273;SDS011;45044;41.572;24.730;2023-06-22T02:33:04;11.80;;;8.80;;
59273;SDS011;45044;41.572;24.730;2023-06-22T02:35:31;10.63;;;8.32;;
59273;SDS011;45044;41.572;24.730;2023-06-22T02:37:58;12.40;;;7.78;;
59273;SDS011;45044;41.572;24.730;2023-06-22T02:40:26;15.30;;;8.23;;
59273;SDS011;45044;41.572;24.730;2023-06-22T02:42:55;11.63;;;7.93;;
59273;SDS011;45044;41.572;24.730;2023-06-22T02:45:24;11.27;;;8.02;;
59273;SDS011;45044;41.572;24.730;2023-06-22T02:47:51;10.95;;;7.50;;
59273;SDS011;45044;41.572;24.730;2023-06-22T02:50:18;13.77;;;8.65;;
59273;SDS011;45044;41.572;24.730;2023-06-22T02:52:45;11.02;;;7.93;;
59273;SDS011;45044;41.572;24.730;2023-06-22T02:55:11;11.63;;;8.07;;
59273;SDS011;45044;41.572;24.730;2023-06-22T02:57:38;11.98;;;8.73;;
59273;SDS011;45044;41.572;24.730;2023-06-22T03:00:10;10.88;;;8.05;;
59273;SDS011;45044;41.572;24.730;2023-06-22T03:02:44;10.98;;;8.07;;
59273;SDS011;45044;41.572;24.730;2023-06-22T03:05:12;11.90;;;8.50;;
59273;SDS011;45044;41.572;24.730;2023-06-22T03:07:44;11.95;;;8.43;;
59273;SDS011;45044;41.572;24.730;2023-06-22T03:10:12;12.73;;;8.40;;
59273;SDS011;45044;41.572;24.730;2023-06-22T03:12:40;11.00;;;8.57;;
59273;SDS011;45044;41.572;24.730;2023-06-22T03:15:08;13.80;;;8.65;;
59273;SDS011;45044;41.572;24.730;2023-06-22T03:17:36;12.30;;;8.70;;
59273;SDS011;45044;41.572;24.730;2023-06-22T03:20:08;10.65;;;7.93;;
59273;SDS011;45044;41.572;24.730;2023-06-22T03:22:40;12.93;;;8.65;;
59273;SDS011;45044;41.572;24.730;2023-06-22T03:25:09;11.85;;;8.77;;
59273;SDS011;45044;41.572;24.730;2023-06-22T03:27:37;11.82;;;8.10;;
59273;SDS011;45044;41.572;24.730;2023-06-22T03:30:04;10.75;;;8.02;;
59273;SDS011;45044;41.572;24.730;2023-06-22T03:32:33;13.20;;;8.52;;
59273;SDS011;45044;41.572;24.730;2023-06-22T03:35:00;12.80;;;8.77;;
59273;SDS011;45044;41.572;24.730;2023-06-22T03:37:28;12.60;;;9.38;;
59273;SDS011;45044;41.572;24.730;2023-06-22T03:39:55;12.52;;;8.95;;
59273;SDS011;45044;41.572;24.730;2023-06-22T03:42:22;12.38;;;9.35;;
59273;SDS011;45044;41.572;24.730;2023-06-22T03:44:49;12.95;;;8.93;;
59273;SDS011;45044;41.572;24.730;2023-06-22T03:47:15;12.70;;;8.32;;
59273;SDS011;45044;41.572;24.730;2023-06-22T03:49:42;12.77;;;9.00;;
59273;SDS011;45044;41.572;24.730;2023-06-22T03:52:09;12.43;;;9.35;;
59273;SDS011;45044;41.572;24.730;2023-06-22T03:54:37;13.43;;;8.95;;
59273;SDS011;45044;41.572;24.730;2023-06-22T03:57:04;12.45;;;8.77;;
59273;SDS011;45044;41.572;24.730;2023-06-22T03:59:31;12.77;;;8.85;;
59273;SDS011;45044;41.572;24.730;2023-06-22T04:01:58;14.07;;;9.13;;
59273;SDS011;45044;41.572;24.730;2023-06-22T04:04:25;13.27;;;8.48;;
59273;SDS011;45044;41.572;24.730;2023-06-22T04:06:52;14.82;;;8.60;;
59273;SDS011;45044;41.572;24.730;2023-06-22T04:09:19;15.65;;;9.75;;
59273;SDS011;45044;41.572;24.730;2023-06-22T04:11:47;15.77;;;9.93;;
59273;SDS011;45044;41.572;24.730;2023-06-22T04:14:14;13.18;;;9.98;;
59273;SDS011;45044;41.572;24.730;2023-06-22T04:16:41;14.27;;;10.40;;
59273;SDS011;45044;41.572;24.730;2023-06-22T04:19:08;13.45;;;9.82;;
59273;SDS011;45044;41.572;24.730;2023-06-22T04:21:40;16.40;;;13.13;;
59273;SDS011;45044;41.572;24.730;2023-06-22T04:24:13;16.70;;;12.38;;
59273;SDS011;45044;41.572;24.730;2023-06-22T04:26:40;20.50;;;11.57;;
59273;SDS011;45044;41.572;24.730;2023-06-22T04:29:09;17.85;;;13.30;;
59273;SDS011;45044;41.572;24.730;2023-06-22T04:31:35;19.80;;;14.60;;
59273;SDS011;45044;41.572;24.730;2023-06-22T04:34:03;17.90;;;13.48;;
59273;SDS011;45044;41.572;24.730;2023-06-22T04:36:38;17.38;;;12.95;;
59273;SDS011;45044;41.572;24.730;2023-06-22T04:39:07;16.95;;;13.07;;
59273;SDS011;45044;41.572;24.730;2023-06-22T04:41:39;15.65;;;12.80;;
59273;SDS011;45044;41.572;24.730;2023-06-22T04:44:10;17.02;;;12.25;;
59273;SDS011;45044;41.572;24.730;2023-06-22T04:46:38;16.02;;;14.23;;
59273;SDS011;45044;41.572;24.730;2023-06-22T04:49:08;13.23;;;10.77;;
59273;SDS011;45044;41.572;24.730;2023-06-22T04:51:41;13.30;;;10.00;;
59273;SDS011;45044;41.572;24.730;2023-06-22T04:54:09;11.43;;;9.57;;
59273;SDS011;45044;41.572;24.730;2023-06-22T04:56:36;13.65;;;11.13;;
59273;SDS011;45044;41.572;24.730;2023-06-22T04:59:03;12.65;;;9.20;;
59273;SDS011;45044;41.572;24.730;2023-06-22T05:01:30;10.65;;;8.65;;
59273;SDS011;45044;41.572;24.730;2023-06-22T05:04:01;11.30;;;9.05;;
59273;SDS011;45044;41.572;24.730;2023-06-22T05:06:29;9.60;;;8.57;;
59273;SDS011;45044;41.572;24.730;2023-06-22T05:08:56;10.82;;;8.13;;
59273;SDS011;45044;41.572;24.730;2023-06-22T05:11:27;9.10;;;7.65;;
59273;SDS011;45044;41.572;24.730;2023-06-22T05:13:54;11.48;;;7.82;;
59273;SDS011;45044;41.572;24.730;2023-06-22T05:16:22;9.45;;;7.95;;
59273;SDS011;45044;41.572;24.730;2023-06-22T05:18:53;10.73;;;8.38;;
59273;SDS011;45044;41.572;24.730;2023-06-22T05:21:22;10.15;;;8.43;;
59273;SDS011;45044;41.572;24.730;2023-06-22T05:23:50;11.63;;;8.15;;
59273;SDS011;45044;41.572;24.730;2023-06-22T05:26:18;10.43;;;7.85;;
59273;SDS011;45044;41.572;24.730;2023-06-22T05:28:46;12.48;;;10.57;;
59273;SDS011;45044;41.572;24.730;2023-06-22T05:31:14;10.00;;;7.70;;
59273;SDS011;45044;41.572;24.730;2023-06-22T05:33:42;9.63;;;7.28;;
59273;SDS011;45044;41.572;24.730;2023-06-22T05:36:10;9.20;;;7.05;;
59273;SDS011;45044;41.572;24.730;2023-06-22T05:38:37;8.70;;;7.07;;
59273;SDS011;45044;41.572;24.730;2023-06-22T05:41:05;8.15;;;6.97;;
59273;SDS011;45044;41.572;24.730;2023-06-22T05:43:32;8.32;;;6.72;;
59273;SDS011;45044;41.572;24.730;2023-06-22T05:45:59;7.75;;;6.55;;
59273;SDS011;45044;41.572;24.730;2023-06-22T05:48:27;8.35;;;7.30;;
59273;SDS011;45044;41.572;24.730;2023-06-22T05:50:53;8.25;;;6.70;;
59273;SDS011;45044;41.572;24.730;2023-06-22T05:53:21;9.90;;;7.85;;
59273;SDS011;45044;41.572;24.730;2023-06-22T05:55:47;9.93;;;7.55;;
59273;SDS011;45044;41.572;24.730;2023-06-22T05:58:15;9.57;;;7.60;;
59273;SDS011;45044;41.572;24.730;2023-06-22T06:00:41;10.65;;;7.68;;
59273;SDS011;45044;41.572;24.730;2023-06-22T06:03:10;8.52;;;7.18;;
59273;SDS011;45044;41.572;24.730;2023-06-22T06:05:40;8.80;;;7.45;;
59273;SDS011;45044;41.572;24.730;2023-06-22T06:08:07;9.63;;;7.00;;
59273;SDS011;45044;41.572;24.730;2023-06-22T06:10:34;8.40;;;6.38;;
59273;SDS011;45044;41.572;24.730;2023-06-22T06:13:01;9.15;;;6.43;;
59273;SDS011;45044;41.572;24.730;2023-06-22T06:15:31;8.27;;;6.82;;
59273;SDS011;45044;41.572;24.730;2023-06-22T06:17:58;9.05;;;6.95;;
59273;SDS011;45044;41.572;24.730;2023-06-22T06:20:26;8.68;;;7.50;;
59273;SDS011;45044;41.572;24.730;2023-06-22T06:22:55;8.77;;;7.47;;
59273;SDS011;45044;41.572;24.730;2023-06-22T06:25:22;8.65;;;7.47;;
59273;SDS011;45044;41.572;24.730;2023-06-22T06:27:50;9.73;;;7.68;;
59273;SDS011;45044;41.572;24.730;2023-06-22T06:30:18;11.65;;;7.80;;
59273;SDS011;45044;41.572;24.730;2023-06-22T06:32:45;10.05;;;7.60;;
59273;SDS011;45044;41.572;24.730;2023-06-22T06:35:14;8.13;;;5.88;;
59273;SDS011;45044;41.572;24.730;2023-06-22T06:37:43;7.35;;;6.18;;
59273;SDS011;45044;41.572;24.730;2023-06-22T06:40:12;8.93;;;6.60;;
59273;SDS011;45044;41.572;24.730;2023-06-22T06:42:40;7.35;;;5.60;;
59273;SDS011;45044;41.572;24.730;2023-06-22T06:47:39;8.43;;;6.43;;
59273;SDS011;45044;41.572;24.730;2023-06-22T06:50:06;7.10;;;5.82;;
59273;SDS011;45044;41.572;24.730;2023-06-22T06:52:33;6.95;;;5.78;;
59273;SDS011;45044;41.572;24.730;2023-06-22T06:55:04;7.55;;;5.78;;
59273;SDS011;45044;41.572;24.730;2023-06-22T06:57:35;7.15;;;5.85;;
59273;SDS011;45044;41.572;24.730;2023-06-22T07:00:11;6.95;;;5.47;;
59273;SDS011;45044;41.572;24.730;2023-06-22T07:02:44;7.78;;;5.13;;
59273;SDS011;45044;41.572;24.730;2023-06-22T07:05:12;7.43;;;6.10;;
59273;SDS011;45044;41.572;24.730;2023-06-22T07:07:39;7.15;;;5.90;;
59273;SDS011;45044;41.572;24.730;2023-06-22T07:10:08;10.02;;;6.78;;
59273;SDS011;45044;41.572;24.730;2023-06-22T07:12:35;7.45;;;5.40;;
59273;SDS011;45044;41.572;24.730;2023-06-22T07:15:02;7.82;;;6.05;;
59273;SDS011;45044;41.572;24.730;2023-06-22T07:17:38;7.10;;;5.53;;
59273;SDS011;45044;41.572;24.730;2023-06-22T07:20:08;6.95;;;5.72;;
59273;SDS011;45044;41.572;24.730;2023-06-22T07:22:47;6.80;;;5.55;;
59273;SDS011;45044;41.572;24.730;2023-06-22T07:25:14;6.78;;;6.05;;
59273;SDS011;45044;41.572;24.730;2023-06-22T07:27:58;7.72;;;5.95;;
59273;SDS011;45044;41.572;24.730;2023-06-22T07:30:26;6.90;;;5.88;;
59273;SDS011;45044;41.572;24.730;2023-06-22T07:32:53;8.00;;;6.30;;
59273;SDS011;45044;41.572;24.730;2023-06-22T07:35:21;8.63;;;6.95;;
59273;SDS011;45044;41.572;24.730;2023-06-22T07:37:47;7.05;;;5.65;;
59273;SDS011;45044;41.572;24.730;2023-06-22T07:40:15;7.35;;;5.68;;
59273;SDS011;45044;41.572;24.730;2023-06-22T07:42:42;7.82;;;6.50;;
59273;SDS011;45044;41.572;24.730;2023-06-22T07:45:09;8.15;;;6.53;;
59273;SDS011;45044;41.572;24.730;2023-06-22T07:47:40;7.05;;;5.75;;
59273;SDS011;45044;41.572;24.730;2023-06-22T07:50:07;7.25;;;5.68;;
59273;SDS011;45044;41.572;24.730;2023-06-22T07:52:35;8.68;;;5.45;;
59273;SDS011;45044;41.572;24.730;2023-06-22T07:55:02;6.88;;;5.90;;
59273;SDS011;45044;41.572;24.730;2023-06-22T07:57:30;7.50;;;5.93;;
59273;SDS011;45044;41.572;24.730;2023-06-22T08:00:01;6.75;;;5.47;;
59273;SDS011;45044;41.572;24.730;2023-06-22T08:02:43;7.90;;;6.38;;
59273;SDS011;45044;41.572;24.730;2023-06-22T08:05:13;6.97;;;6.00;;
59273;SDS011;45044;41.572;24.730;2023-06-22T08:07:59;8.43;;;6.45;;
59273;SDS011;45044;41.572;24.730;2023-06-22T08:10:26;8.27;;;6.20;;
59273;SDS011;45044;41.572;24.730;2023-06-22T08:12:53;7.60;;;6.03;;
59273;SDS011;45044;41.572;24.730;2023-06-22T08:15:20;8.02;;;6.20;;
59273;SDS011;45044;41.572;24.730;2023-06-22T08:17:48;8.70;;;6.20;;
59273;SDS011;45044;41.572;24.730;2023-06-22T08:20:15;8.30;;;6.38;;
59273;SDS011;45044;41.572;24.730;2023-06-22T08:22:42;8.82;;;6.15;;
59273;SDS011;45044;41.572;24.730;2023-06-22T08:25:10;7.68;;;6.03;;
59273;SDS011;45044;41.572;24.730;2023-06-22T08:27:37;8.75;;;6.80;;
59273;SDS011;45044;41.572;24.730;2023-06-22T08:30:04;8.30;;;6.72;;
59273;SDS011;45044;41.572;24.730;2023-06-22T08:32:32;9.70;;;7.47;;
59273;SDS011;45044;41.572;24.730;2023-06-22T08:35:00;8.25;;;6.00;;
59273;SDS011;45044;41.572;24.730;2023-06-22T08:37:27;7.70;;;6.00;;
59273;SDS011;45044;41.572;24.730;2023-06-22T08:40:01;8.30;;;6.72;;
59273;SDS011;45044;41.572;24.730;2023-06-22T08:42:32;7.55;;;5.60;;
59273;SDS011;45044;41.572;24.730;2023-06-22T08:44:59;9.18;;;5.32;;
59273;SDS011;45044;41.572;24.730;2023-06-22T08:47:29;8.32;;;6.40;;
59273;SDS011;45044;41.572;24.730;2023-06-22T08:49:56;6.78;;;5.20;;
59273;SDS011;45044;41.572;24.730;2023-06-22T08:52:23;7.57;;;5.32;;
59273;SDS011;45044;41.572;24.730;2023-06-22T08:54:50;8.35;;;5.68;;
59273;SDS011;45044;41.572;24.730;2023-06-22T08:57:17;7.05;;;5.30;;
59273;SDS011;45044;41.572;24.730;2023-06-22T08:59:44;7.70;;;5.80;;
59273;SDS011;45044;41.572;24.730;2023-06-22T09:02:11;8.05;;;5.90;;
59273;SDS011;45044;41.572;24.730;2023-06-22T09:04:38;9.13;;;6.10;;
59273;SDS011;45044;41.572;24.730;2023-06-22T09:07:05;6.65;;;5.10;;
59273;SDS011;45044;41.572;24.730;2023-06-22T09:09:32;8.95;;;5.38;;
59273;SDS011;45044;41.572;24.730;2023-06-22T09:11:59;6.97;;;5.80;;
59273;SDS011;45044;41.572;24.730;2023-06-22T09:14:26;8.20;;;5.80;;
59273;SDS011;45044;41.572;24.730;2023-06-22T09:16:53;8.05;;;6.28;;
59273;SDS011;45044;41.572;24.730;2023-06-22T09:19:20;8.98;;;6.80;;
59273;SDS011;45044;41.572;24.730;2023-06-22T09:21:46;8.27;;;6.07;;
59273;SDS011;45044;41.572;24.730;2023-06-22T09:24:13;8.32;;;6.47;;
59273;SDS011;45044;41.572;24.730;2023-06-22T09:26:40;7.72;;;6.28;;
59273;SDS011;45044;41.572;24.730;2023-06-22T09:29:07;7.88;;;6.25;;
59273;SDS011;45044;41.572;24.730;2023-06-22T09:31:34;9.50;;;6.90;;
59273;SDS011;45044;41.572;24.730;2023-06-22T09:34:01;9.80;;;6.72;;
59273;SDS011;45044;41.572;24.730;2023-06-22T09:36:28;7.65;;;6.05;;
59273;SDS011;45044;41.572;24.730;2023-06-22T09:38:55;8.57;;;6.50;;
59273;SDS011;45044;41.572;24.730;2023-06-22T09:41:24;8.38;;;6.18;;
59273;SDS011;45044;41.572;24.730;2023-06-22T09:43:51;9.60;;;6.45;;
59273;SDS011;45044;41.572;24.730;2023-06-22T09:46:22;8.90;;;6.50;;
59273;SDS011;45044;41.572;24.730;2023-06-22T09:48:51;9.68;;;6.75;;
59273;SDS011;45044;41.572;24.730;2023-06-22T09:51:18;10.35;;;6.22;;
59273;SDS011;45044;41.572;24.730;2023-06-22T09:53:47;7.50;;;5.60;;
59273;SDS011;45044;41.572;24.730;2023-06-22T09:56:14;8.68;;;6.05;;
59273;SDS011;45044;41.572;24.730;2023-06-22T09:58:43;7.25;;;5.82;;
59273;SDS011;45044;41.572;24.730;2023-06-22T10:01:11;9.88;;;6.45;;
59273;SDS011;45044;41.572;24.730;2023-06-22T10:03:37;7.35;;;6.30;;
59273;SDS011;45044;41.572;24.730;2023-06-22T10:06:04;7.63;;;6.38;;
59273;SDS011;45044;41.572;24.730;2023-06-22T10:08:32;9.25;;;6.70;;
59273;SDS011;45044;41.572;24.730;2023-06-22T10:11:00;8.07;;;6.53;;
59273;SDS011;45044;41.572;24.730;2023-06-22T10:13:27;9.18;;;6.55;;
59273;SDS011;45044;41.572;24.730;2023-06-22T10:15:53;7.47;;;6.18;;
59273;SDS011;45044;41.572;24.730;2023-06-22T10:18:20;8.80;;;6.75;;
59273;SDS011;45044;41.572;24.730;2023-06-22T10:20:48;8.75;;;6.13;;
59273;SDS011;45044;41.572;24.730;2023-06-22T10:23:19;14.38;;;7.45;;
59273;SDS011;45044;41.572;24.730;2023-06-22T10:25:46;10.93;;;6.97;;
59273;SDS011;45044;41.572;24.730;2023-06-22T10:28:13;9.63;;;6.32;;
59273;SDS011;45044;41.572;24.730;2023-06-22T10:30:40;9.90;;;7.10;;
59273;SDS011;45044;41.572;24.730;2023-06-22T10:33:08;8.27;;;6.75;;
59273;SDS011;45044;41.572;24.730;2023-06-22T10:35:36;8.25;;;6.63;;
59273;SDS011;45044;41.572;24.730;2023-06-22T10:38:06;8.15;;;6.80;;
59273;SDS011;45044;41.572;24.730;2023-06-22T10:40:33;8.45;;;6.47;;
59273;SDS011;45044;41.572;24.730;2023-06-22T10:43:07;10.73;;;7.90;;
59273;SDS011;45044;41.572;24.730;2023-06-22T10:45:34;11.65;;;8.43;;
59273;SDS011;45044;41.572;24.730;2023-06-22T10:48:00;10.85;;;7.35;;
59273;SDS011;45044;41.572;24.730;2023-06-22T10:50:27;8.55;;;6.53;;
59273;SDS011;45044;41.572;24.730;2023-06-22T10:52:54;9.52;;;8.07;;
59273;SDS011;45044;41.572;24.730;2023-06-22T10:55:24;9.45;;;6.90;;
59273;SDS011;45044;41.572;24.730;2023-06-22T10:57:51;9.23;;;7.30;;
59273;SDS011;45044;41.572;24.730;2023-06-22T11:00:18;10.07;;;7.72;;
59273;SDS011;45044;41.572;24.730;2023-06-22T11:02:45;8.25;;;7.28;;
59273;SDS011;45044;41.572;24.730;2023-06-22T11:05:12;10.57;;;8.23;;
59273;SDS011;45044;41.572;24.730;2023-06-22T11:07:42;9.50;;;7.10;;
59273;SDS011;45044;41.572;24.730;2023-06-22T11:10:12;11.60;;;7.32;;
59273;SDS011;45044;41.572;24.730;2023-06-22T11:12:40;8.77;;;7.28;;
59273;SDS011;45044;41.572;24.730;2023-06-22T11:15:07;10.85;;;7.45;;
59273;SDS011;45044;41.572;24.730;2023-06-22T11:17:35;10.05;;;7.25;;
59273;SDS011;45044;41.572;24.730;2023-06-22T11:20:08;10.35;;;7.35;;
59273;SDS011;45044;41.572;24.730;2023-06-22T11:22:39;11.20;;;7.38;;
59273;SDS011;45044;41.572;24.730;2023-06-22T11:25:06;8.88;;;6.60;;
59273;SDS011;45044;41.572;24.730;2023-06-22T11:27:34;9.57;;;6.90;;
59273;SDS011;45044;41.572;24.730;2023-06-22T11:30:00;9.00;;;6.50;;
59273;SDS011;45044;41.572;24.730;2023-06-22T11:32:27;8.77;;;6.93;;
59273;SDS011;45044;41.572;24.730;2023-06-22T11:34:54;8.63;;;6.78;;
59273;SDS011;45044;41.572;24.730;2023-06-22T11:37:21;8.73;;;6.68;;
59273;SDS011;45044;41.572;24.730;2023-06-22T11:39:48;7.50;;;6.38;;
59273;SDS011;45044;41.572;24.730;2023-06-22T11:42:31;11.10;;;7.93;;
59273;SDS011;45044;41.572;24.730;2023-06-22T11:44:58;9.55;;;6.82;;
59273;SDS011;45044;41.572;24.730;2023-06-22T11:47:25;9.35;;;7.00;;
59273;SDS011;45044;41.572;24.730;2023-06-22T11:49:52;9.73;;;7.93;;
59273;SDS011;45044;41.572;24.730;2023-06-22T11:52:19;8.98;;;6.95;;
59273;SDS011;45044;41.572;24.730;2023-06-22T11:54:46;9.38;;;6.72;;
59273;SDS011;45044;41.572;24.730;2023-06-22T11:57:12;10.73;;;7.50;;
59273;SDS011;45044;41.572;24.730;2023-06-22T11:59:39;17.75;;;8.27;;
59273;SDS011;45044;41.572;24.730;2023-06-22T12:02:06;8.35;;;7.45;;
59273;SDS011;45044;41.572;24.730;2023-06-22T12:04:34;10.00;;;6.90;;
59273;SDS011;45044;41.572;24.730;2023-06-22T12:07:00;8.95;;;6.63;;
59273;SDS011;45044;41.572;24.730;2023-06-22T12:09:28;10.48;;;7.05;;
59273;SDS011;45044;41.572;24.730;2023-06-22T12:11:55;9.77;;;7.22;;
59273;SDS011;45044;41.572;24.730;2023-06-22T12:14:22;9.77;;;7.03;;
59273;SDS011;45044;41.572;24.730;2023-06-22T12:16:49;8.77;;;7.18;;
59273;SDS011;45044;41.572;24.730;2023-06-22T12:19:16;8.80;;;6.95;;
59273;SDS011;45044;41.572;24.730;2023-06-22T12:21:43;8.55;;;6.45;;
59273;SDS011;45044;41.572;24.730;2023-06-22T12:24:12;8.85;;;7.35;;
59273;SDS011;45044;41.572;24.730;2023-06-22T12:26:39;8.95;;;7.15;;
59273;SDS011;45044;41.572;24.730;2023-06-22T12:29:06;8.50;;;7.22;;
59273;SDS011;45044;41.572;24.730;2023-06-22T12:31:32;8.55;;;7.35;;
59273;SDS011;45044;41.572;24.730;2023-06-22T12:33:59;8.23;;;6.93;;
59273;SDS011;45044;41.572;24.730;2023-06-22T12:36:26;8.73;;;7.03;;
59273;SDS011;45044;41.572;24.730;2023-06-22T12:38:52;7.82;;;6.97;;
59273;SDS011;45044;41.572;24.730;2023-06-22T12:41:22;8.15;;;6.50;;
59273;SDS011;45044;41.572;24.730;2023-06-22T12:43:49;9.88;;;6.97;;
59273;SDS011;45044;41.572;24.730;2023-06-22T12:46:15;9.73;;;7.13;;
59273;SDS011;45044;41.572;24.730;2023-06-22T12:48:42;9.75;;;6.85;;
59273;SDS011;45044;41.572;24.730;2023-06-22T12:51:09;8.65;;;7.13;;
59273;SDS011;45044;41.572;24.730;2023-06-22T12:53:36;10.40;;;7.38;;
59273;SDS011;45044;41.572;24.730;2023-06-22T12:56:03;8.65;;;7.05;;
59273;SDS011;45044;41.572;24.730;2023-06-22T12:58:30;9.35;;;7.65;;
59273;SDS011;45044;41.572;24.730;2023-06-22T13:00:57;8.35;;;7.03;;
59273;SDS011;45044;41.572;24.730;2023-06-22T13:03:24;10.02;;;7.35;;
59273;SDS011;45044;41.572;24.730;2023-06-22T13:05:53;8.05;;;6.63;;
59273;SDS011;45044;41.572;24.730;2023-06-22T13:08:20;8.32;;;7.18;;
59273;SDS011;45044;41.572;24.730;2023-06-22T13:10:47;13.20;;;6.97;;
59273;SDS011;45044;41.572;24.730;2023-06-22T13:13:14;11.10;;;7.05;;
59273;SDS011;45044;41.572;24.730;2023-06-22T13:15:40;9.57;;;7.18;;
59273;SDS011;45044;41.572;24.730;2023-06-22T13:18:07;8.85;;;6.93;;
59273;SDS011;45044;41.572;24.730;2023-06-22T13:20:34;8.65;;;6.15;;
59273;SDS011;45044;41.572;24.730;2023-06-22T13:23:01;8.98;;;7.22;;
59273;SDS011;45044;41.572;24.730;2023-06-22T13:25:27;10.90;;;7.10;;
59273;SDS011;45044;41.572;24.730;2023-06-22T13:27:58;8.23;;;6.88;;
59273;SDS011;45044;41.572;24.730;2023-06-22T13:30:24;9.77;;;7.80;;
59273;SDS011;45044;41.572;24.730;2023-06-22T13:32:51;13.75;;;7.88;;
59273;SDS011;45044;41.572;24.730;2023-06-22T13:35:18;10.32;;;7.97;;
59273;SDS011;45044;41.572;24.730;2023-06-22T13:37:45;11.00;;;7.47;;
59273;SDS011;45044;41.572;24.730;2023-06-22T13:40:12;9.85;;;7.18;;
59273;SDS011;45044;41.572;24.730;2023-06-22T13:42:39;7.75;;;6.90;;
59273;SDS011;45044;41.572;24.730;2023-06-22T13:45:07;9.40;;;6.88;;
59273;SDS011;45044;41.572;24.730;2023-06-22T13:47:35;9.05;;;6.82;;
59273;SDS011;45044;41.572;24.730;2023-06-22T13:50:01;9.40;;;7.40;;
59273;SDS011;45044;41.572;24.730;2023-06-22T13:52:28;9.30;;;6.97;;
59273;SDS011;45044;41.572;24.730;2023-06-22T13:54:55;8.60;;;6.50;;
59273;SDS011;45044;41.572;24.730;2023-06-22T13:57:22;8.10;;;6.82;;
59273;SDS011;45044;41.572;24.730;2023-06-22T13:59:49;14.27;;;7.78;;
59273;SDS011;45044;41.572;24.730;2023-06-22T14:02:15;8.60;;;7.20;;
59273;SDS011;45044;41.572;24.730;2023-06-22T14:04:42;12.43;;;7.13;;
59273;SDS011;45044;41.572;24.730;2023-06-22T14:07:12;9.55;;;6.80;;
59273;SDS011;45044;41.572;24.730;2023-06-22T14:09:40;9.95;;;6.70;;
59273;SDS011;45044;41.572;24.730;2023-06-22T14:12:07;8.15;;;6.60;;
59273;SDS011;45044;41.572;24.730;2023-06-22T14:14:34;8.27;;;6.75;;
59273;SDS011;45044;41.572;24.730;2023-06-22T14:17:01;8.57;;;6.28;;
59273;SDS011;45044;41.572;24.730;2023-06-22T14:19:28;10.25;;;7.15;;
59273;SDS011;45044;41.572;24.730;2023-06-22T14:21:55;9.48;;;6.63;;
59273;SDS011;45044;41.572;24.730;2023-06-22T14:24:23;8.05;;;6.88;;
59273;SDS011;45044;41.572;24.730;2023-06-22T14:26:53;9.00;;;7.38;;
59273;SDS011;45044;41.572;24.730;2023-06-22T14:29:21;8.38;;;6.80;;
59273;SDS011;45044;41.572;24.730;2023-06-22T14:31:48;11.13;;;7.15;;
59273;SDS011;45044;41.572;24.730;2023-06-22T14:34:16;10.05;;;7.05;;
59273;SDS011;45044;41.572;24.730;2023-06-22T14:36:42;8.75;;;7.07;;
59273;SDS011;45044;41.572;24.730;2023-06-22T14:39:09;8.93;;;7.00;;
59273;SDS011;45044;41.572;24.730;2023-06-22T14:41:36;9.13;;;7.28;;